sensor_id;sensor_type;location;lat;lon;timestamp;temperature;humidity
54684;DHT22;40582;53.100;6.686;2022-11-15T00:00:25;7.20;99.90
54684;DHT22;40582;53.100;6.686;2022-11-15T00:02:55;7.10;99.90
54684;DHT22;40582;53.100;6.686;2022-11-15T00:05:21;7.00;99.90
54684;DHT22;40582;53.100;6.686;2022-11-15T00:07:47;6.90;99.90
54684;DHT22;40582;53.100;6.686;2022-11-15T00:10:12;6.70;99.90
54684;DHT22;40582;53.100;6.686;2022-11-15T00:12:38;6.70;99.90
54684;DHT22;40582;53.100;6.686;2022-11-15T00:15:04;6.90;99.90
54684;DHT22;40582;53.100;6.686;2022-11-15T00:17:30;6.50;99.90
54684;DHT22;40582;53.100;6.686;2022-11-15T00:19:56;6.70;99.90
54684;DHT22;40582;53.100;6.686;2022-11-15T00:22:21;6.60;99.90
54684;DHT22;40582;53.100;6.686;2022-11-15T00:24:47;6.60;99.90
54684;DHT22;40582;53.100;6.686;2022-11-15T00:27:13;6.60;99.90
54684;DHT22;40582;53.100;6.686;2022-11-15T00:29:39;6.70;99.90
54684;DHT22;40582;53.100;6.686;2022-11-15T00:32:09;6.70;99.90
54684;DHT22;40582;53.100;6.686;2022-11-15T00:34:35;6.60;99.90
54684;DHT22;40582;53.100;6.686;2022-11-15T00:37:01;6.50;99.90
54684;DHT22;40582;53.100;6.686;2022-11-15T00:39:27;6.50;99.90
54684;DHT22;40582;53.100;6.686;2022-11-15T00:41:52;6.60;99.90
54684;DHT22;40582;53.100;6.686;2022-11-15T00:44:18;6.70;99.90
54684;DHT22;40582;53.100;6.686;2022-11-15T00:46:44;6.50;99.90
54684;DHT22;40582;53.100;6.686;2022-11-15T00:49:09;6.70;99.90
54684;DHT22;40582;53.100;6.686;2022-11-15T00:51:35;6.90;99.90
54684;DHT22;40582;53.100;6.686;2022-11-15T00:54:01;6.70;99.90
54684;DHT22;40582;53.100;6.686;2022-11-15T00:56:26;7.20;99.90
54684;DHT22;40582;53.100;6.686;2022-11-15T00:58:53;6.70;99.90
54684;DHT22;40582;53.100;6.686;2022-11-15T01:01:18;6.70;99.90
54684;DHT22;40582;53.100;6.686;2022-11-15T01:03:44;6.70;99.90
54684;DHT22;40582;53.100;6.686;2022-11-15T01:06:10;6.80;99.90
54684;DHT22;40582;53.100;6.686;2022-11-15T01:08:41;6.70;99.90
54684;DHT22;40582;53.100;6.686;2022-11-15T01:11:09;6.70;99.90
54684;DHT22;40582;53.100;6.686;2022-11-15T01:13:37;6.80;99.90
54684;DHT22;40582;53.100;6.686;2022-11-15T01:18:33;7.00;99.90
54684;DHT22;40582;53.100;6.686;2022-11-15T01:20:59;7.00;99.90
54684;DHT22;40582;53.100;6.686;2022-11-15T01:23:24;7.10;99.90
54684;DHT22;40582;53.100;6.686;2022-11-15T01:25:50;7.10;99.90
54684;DHT22;40582;53.100;6.686;2022-11-15T01:28:15;7.20;99.90
54684;DHT22;40582;53.100;6.686;2022-11-15T01:30:41;7.20;99.90
54684;DHT22;40582;53.100;6.686;2022-11-15T01:33:07;7.20;99.90
54684;DHT22;40582;53.100;6.686;2022-11-15T01:35:32;7.30;99.90
54684;DHT22;40582;53.100;6.686;2022-11-15T01:37:58;7.30;99.90
54684;DHT22;40582;53.100;6.686;2022-11-15T01:40:24;7.30;99.90
54684;DHT22;40582;53.100;6.686;2022-11-15T01:42:50;7.30;99.90
54684;DHT22;40582;53.100;6.686;2022-11-15T01:45:16;7.30;99.90
54684;DHT22;40582;53.100;6.686;2022-11-15T01:47:48;7.40;99.90
54684;DHT22;40582;53.100;6.686;2022-11-15T01:50:19;7.40;99.90
54684;DHT22;40582;53.100;6.686;2022-11-15T01:52:47;7.40;99.90
54684;DHT22;40582;53.100;6.686;2022-11-15T01:55:25;7.30;99.90
54684;DHT22;40582;53.100;6.686;2022-11-15T01:57:57;7.90;99.90
54684;DHT22;40582;53.100;6.686;2022-11-15T02:00:23;7.40;99.90
54684;DHT22;40582;53.100;6.686;2022-11-15T02:02:49;7.40;99.90
54684;DHT22;40582;53.100;6.686;2022-11-15T02:05:15;7.40;99.90
54684;DHT22;40582;53.100;6.686;2022-11-15T02:07:40;7.50;99.90
54684;DHT22;40582;53.100;6.686;2022-11-15T02:10:12;7.40;99.90
54684;DHT22;40582;53.100;6.686;2022-11-15T02:12:39;7.40;99.90
54684;DHT22;40582;53.100;6.686;2022-11-15T02:15:06;7.50;99.90
54684;DHT22;40582;53.100;6.686;2022-11-15T02:23:35;7.40;99.90
54684;DHT22;40582;53.100;6.686;2022-11-15T02:26:51;7.50;99.90
54684;DHT22;40582;53.100;6.686;2022-11-15T02:29:47;7.50;99.90
54684;DHT22;40582;53.100;6.686;2022-11-15T02:32:35;7.50;99.90
54684;DHT22;40582;53.100;6.686;2022-11-15T02:38:09;7.50;99.90
54684;DHT22;40582;53.100;6.686;2022-11-15T02:40:57;7.50;99.90
54684;DHT22;40582;53.100;6.686;2022-11-15T02:43:29;7.50;99.90
54684;DHT22;40582;53.100;6.686;2022-11-15T02:46:21;7.50;99.90
54684;DHT22;40582;53.100;6.686;2022-11-15T02:48:48;7.50;99.90
54684;DHT22;40582;53.100;6.686;2022-11-15T02:51:14;7.50;99.90
54684;DHT22;40582;53.100;6.686;2022-11-15T02:53:41;7.50;99.90
54684;DHT22;40582;53.100;6.686;2022-11-15T02:56:09;7.60;99.90
54684;DHT22;40582;53.100;6.686;2022-11-15T02:59:00;7.50;99.90
54684;DHT22;40582;53.100;6.686;2022-11-15T03:07:16;7.60;99.90
54684;DHT22;40582;53.100;6.686;2022-11-15T03:12:26;7.60;99.90
54684;DHT22;40582;53.100;6.686;2022-11-15T03:15:06;7.60;99.90
54684;DHT22;40582;53.100;6.686;2022-11-15T03:17:48;7.60;99.90
54684;DHT22;40582;53.100;6.686;2022-11-15T03:20:17;7.60;99.90
54684;DHT22;40582;53.100;6.686;2022-11-15T03:22:44;7.60;99.90
54684;DHT22;40582;53.100;6.686;2022-11-15T03:25:18;7.60;99.90
54684;DHT22;40582;53.100;6.686;2022-11-15T03:27:50;7.70;99.90
54684;DHT22;40582;53.100;6.686;2022-11-15T03:30:17;7.70;99.90
54684;DHT22;40582;53.100;6.686;2022-11-15T03:32:49;7.70;99.90
54684;DHT22;40582;53.100;6.686;2022-11-15T03:35:29;7.70;99.90
54684;DHT22;40582;53.100;6.686;2022-11-15T03:40:55;7.70;99.90
54684;DHT22;40582;53.100;6.686;2022-11-15T03:43:41;7.70;99.90
54684;DHT22;40582;53.100;6.686;2022-11-15T03:46:46;7.70;99.90
54684;DHT22;40582;53.100;6.686;2022-11-15T03:49:34;7.70;99.90
54684;DHT22;40582;53.100;6.686;2022-11-15T03:52:03;8.00;99.90
54684;DHT22;40582;53.100;6.686;2022-11-15T03:54:29;7.80;99.90
54684;DHT22;40582;53.100;6.686;2022-11-15T03:56:55;8.40;99.90
54684;DHT22;40582;53.100;6.686;2022-11-15T03:59:20;8.10;99.90
54684;DHT22;40582;53.100;6.686;2022-11-15T04:01:46;7.80;99.90
54684;DHT22;40582;53.100;6.686;2022-11-15T04:04:12;7.80;99.90
54684;DHT22;40582;53.100;6.686;2022-11-15T04:06:38;7.80;99.90
54684;DHT22;40582;53.100;6.686;2022-11-15T04:09:03;7.80;99.90
54684;DHT22;40582;53.100;6.686;2022-11-15T04:11:29;7.80;99.90
54684;DHT22;40582;53.100;6.686;2022-11-15T04:13:55;7.80;99.90
54684;DHT22;40582;53.100;6.686;2022-11-15T04:16:20;8.10;99.90
54684;DHT22;40582;53.100;6.686;2022-11-15T04:18:46;7.90;99.90
54684;DHT22;40582;53.100;6.686;2022-11-15T04:21:32;7.90;99.90
54684;DHT22;40582;53.100;6.686;2022-11-15T04:24:16;7.90;99.90
54684;DHT22;40582;53.100;6.686;2022-11-15T04:26:42;7.90;99.90
54684;DHT22;40582;53.100;6.686;2022-11-15T04:29:08;7.90;99.90
54684;DHT22;40582;53.100;6.686;2022-11-15T04:31:52;7.90;99.90
54684;DHT22;40582;53.100;6.686;2022-11-15T04:34:17;7.90;99.90
54684;DHT22;40582;53.100;6.686;2022-11-15T04:36:43;7.90;99.90
54684;DHT22;40582;53.100;6.686;2022-11-15T04:39:27;7.90;99.90
54684;DHT22;40582;53.100;6.686;2022-11-15T04:41:53;7.90;99.90
54684;DHT22;40582;53.100;6.686;2022-11-15T04:44:19;8.40;99.90
54684;DHT22;40582;53.100;6.686;2022-11-15T04:46:44;8.00;99.90
54684;DHT22;40582;53.100;6.686;2022-11-15T04:49:10;8.00;99.90
54684;DHT22;40582;53.100;6.686;2022-11-15T04:51:36;8.00;99.90
54684;DHT22;40582;53.100;6.686;2022-11-15T04:54:01;8.00;99.90
54684;DHT22;40582;53.100;6.686;2022-11-15T04:56:27;8.10;99.90
54684;DHT22;40582;53.100;6.686;2022-11-15T04:58:53;8.10;99.90
54684;DHT22;40582;53.100;6.686;2022-11-15T05:01:18;8.10;99.90
54684;DHT22;40582;53.100;6.686;2022-11-15T05:03:44;8.10;99.90
54684;DHT22;40582;53.100;6.686;2022-11-15T05:06:29;8.10;99.90
54684;DHT22;40582;53.100;6.686;2022-11-15T05:08:56;8.10;99.90
54684;DHT22;40582;53.100;6.686;2022-11-15T05:11:22;8.20;99.90
54684;DHT22;40582;53.100;6.686;2022-11-15T05:13:48;8.20;99.90
54684;DHT22;40582;53.100;6.686;2022-11-15T05:16:14;8.30;99.90
54684;DHT22;40582;53.100;6.686;2022-11-15T05:18:40;8.30;99.90
54684;DHT22;40582;53.100;6.686;2022-11-15T05:21:13;8.30;99.90
54684;DHT22;40582;53.100;6.686;2022-11-15T05:23:40;8.30;99.90
54684;DHT22;40582;53.100;6.686;2022-11-15T05:26:06;8.30;99.90
54684;DHT22;40582;53.100;6.686;2022-11-15T05:28:33;8.30;99.90
54684;DHT22;40582;53.100;6.686;2022-11-15T05:31:11;8.40;99.90
54684;DHT22;40582;53.100;6.686;2022-11-15T05:33:38;8.50;99.90
54684;DHT22;40582;53.100;6.686;2022-11-15T05:38:33;8.50;99.90
54684;DHT22;40582;53.100;6.686;2022-11-15T05:41:03;8.70;99.90
54684;DHT22;40582;53.100;6.686;2022-11-15T05:43:30;8.50;99.90
54684;DHT22;40582;53.100;6.686;2022-11-15T05:45:58;8.50;99.90
54684;DHT22;40582;53.100;6.686;2022-11-15T05:48:25;8.60;99.90
54684;DHT22;40582;53.100;6.686;2022-11-15T05:50:51;8.60;99.90
54684;DHT22;40582;53.100;6.686;2022-11-15T05:53:19;8.70;99.90
54684;DHT22;40582;53.100;6.686;2022-11-15T05:55:46;8.70;99.90
54684;DHT22;40582;53.100;6.686;2022-11-15T05:58:12;8.70;99.90
54684;DHT22;40582;53.100;6.686;2022-11-15T06:00:38;8.70;99.90
54684;DHT22;40582;53.100;6.686;2022-11-15T06:03:04;8.70;99.90
54684;DHT22;40582;53.100;6.686;2022-11-15T06:05:29;8.80;99.90
54684;DHT22;40582;53.100;6.686;2022-11-15T06:07:58;8.90;99.90
54684;DHT22;40582;53.100;6.686;2022-11-15T06:10:24;8.80;99.90
54684;DHT22;40582;53.100;6.686;2022-11-15T06:13:02;8.90;99.90
54684;DHT22;40582;53.100;6.686;2022-11-15T06:15:27;8.90;99.90
54684;DHT22;40582;53.100;6.686;2022-11-15T06:17:56;8.90;99.90
54684;DHT22;40582;53.100;6.686;2022-11-15T06:20:27;9.00;99.90
54684;DHT22;40582;53.100;6.686;2022-11-15T06:23:03;9.00;99.90
54684;DHT22;40582;53.100;6.686;2022-11-15T06:25:30;9.00;99.90
54684;DHT22;40582;53.100;6.686;2022-11-15T06:27:57;9.00;99.90
54684;DHT22;40582;53.100;6.686;2022-11-15T06:30:25;9.00;99.90
54684;DHT22;40582;53.100;6.686;2022-11-15T06:32:50;9.10;99.90
54684;DHT22;40582;53.100;6.686;2022-11-15T06:35:16;9.10;99.90
54684;DHT22;40582;53.100;6.686;2022-11-15T06:37:42;9.20;99.90
54684;DHT22;40582;53.100;6.686;2022-11-15T06:40:09;9.20;99.90
54684;DHT22;40582;53.100;6.686;2022-11-15T06:42:35;9.20;99.90
54684;DHT22;40582;53.100;6.686;2022-11-15T06:45:01;9.20;99.90
54684;DHT22;40582;53.100;6.686;2022-11-15T06:47:27;9.20;99.90
54684;DHT22;40582;53.100;6.686;2022-11-15T06:49:53;9.30;99.90
54684;DHT22;40582;53.100;6.686;2022-11-15T06:52:18;9.30;99.90
54684;DHT22;40582;53.100;6.686;2022-11-15T06:54:45;9.30;99.90
54684;DHT22;40582;53.100;6.686;2022-11-15T06:57:10;9.40;99.90
54684;DHT22;40582;53.100;6.686;2022-11-15T06:59:36;9.40;99.90
54684;DHT22;40582;53.100;6.686;2022-11-15T07:02:03;9.40;99.90
54684;DHT22;40582;53.100;6.686;2022-11-15T07:04:28;9.40;99.90
54684;DHT22;40582;53.100;6.686;2022-11-15T07:06:54;9.40;99.90
54684;DHT22;40582;53.100;6.686;2022-11-15T07:09:20;9.40;99.90
54684;DHT22;40582;53.100;6.686;2022-11-15T07:11:45;9.50;99.90
54684;DHT22;40582;53.100;6.686;2022-11-15T07:14:11;9.50;99.90
54684;DHT22;40582;53.100;6.686;2022-11-15T07:16:37;9.50;99.90
54684;DHT22;40582;53.100;6.686;2022-11-15T07:19:03;9.50;99.90
54684;DHT22;40582;53.100;6.686;2022-11-15T07:21:28;9.60;99.90
54684;DHT22;40582;53.100;6.686;2022-11-15T07:23:54;9.60;99.90
54684;DHT22;40582;53.100;6.686;2022-11-15T07:26:20;9.60;99.90
54684;DHT22;40582;53.100;6.686;2022-11-15T07:28:46;9.60;99.90
54684;DHT22;40582;53.100;6.686;2022-11-15T07:31:11;9.70;99.90
54684;DHT22;40582;53.100;6.686;2022-11-15T07:33:37;9.60;99.90
54684;DHT22;40582;53.100;6.686;2022-11-15T07:36:04;9.70;99.90
54684;DHT22;40582;53.100;6.686;2022-11-15T07:38:31;9.70;99.90
54684;DHT22;40582;53.100;6.686;2022-11-15T07:41:02;9.70;99.90
54684;DHT22;40582;53.100;6.686;2022-11-15T07:43:28;9.70;99.90
54684;DHT22;40582;53.100;6.686;2022-11-15T07:45:55;9.80;99.90
54684;DHT22;40582;53.100;6.686;2022-11-15T07:48:22;9.80;99.90
54684;DHT22;40582;53.100;6.686;2022-11-15T07:50:47;9.80;99.90
54684;DHT22;40582;53.100;6.686;2022-11-15T07:53:13;9.80;99.90
54684;DHT22;40582;53.100;6.686;2022-11-15T07:55:40;9.90;99.90
54684;DHT22;40582;53.100;6.686;2022-11-15T07:58:08;9.90;99.90
54684;DHT22;40582;53.100;6.686;2022-11-15T08:00:35;9.90;99.90
54684;DHT22;40582;53.100;6.686;2022-11-15T08:03:09;10.00;99.90
54684;DHT22;40582;53.100;6.686;2022-11-15T08:05:36;10.00;99.90
54684;DHT22;40582;53.100;6.686;2022-11-15T08:08:02;10.10;99.90
54684;DHT22;40582;53.100;6.686;2022-11-15T08:10:28;10.10;99.90
54684;DHT22;40582;53.100;6.686;2022-11-15T08:13:02;10.10;99.90
54684;DHT22;40582;53.100;6.686;2022-11-15T08:15:29;10.10;99.90
54684;DHT22;40582;53.100;6.686;2022-11-15T08:18:06;10.10;99.90
54684;DHT22;40582;53.100;6.686;2022-11-15T08:20:33;10.20;99.90
54684;DHT22;40582;53.100;6.686;2022-11-15T08:23:00;10.20;99.90
54684;DHT22;40582;53.100;6.686;2022-11-15T08:25:28;10.30;99.90
54684;DHT22;40582;53.100;6.686;2022-11-15T08:27:59;10.30;99.90
54684;DHT22;40582;53.100;6.686;2022-11-15T08:30:24;10.40;99.90
54684;DHT22;40582;53.100;6.686;2022-11-15T08:32:51;10.50;99.90
54684;DHT22;40582;53.100;6.686;2022-11-15T08:35:18;10.60;99.90
54684;DHT22;40582;53.100;6.686;2022-11-15T08:37:44;10.50;99.90
54684;DHT22;40582;53.100;6.686;2022-11-15T08:40:10;10.60;99.90
54684;DHT22;40582;53.100;6.686;2022-11-15T08:42:36;10.60;99.90
54684;DHT22;40582;53.100;6.686;2022-11-15T08:45:02;10.70;99.90
54684;DHT22;40582;53.100;6.686;2022-11-15T08:47:28;10.70;99.90
54684;DHT22;40582;53.100;6.686;2022-11-15T08:49:54;10.90;99.90
54684;DHT22;40582;53.100;6.686;2022-11-15T08:52:20;11.00;99.90
54684;DHT22;40582;53.100;6.686;2022-11-15T08:54:46;11.00;99.90
54684;DHT22;40582;53.100;6.686;2022-11-15T08:57:12;11.00;99.90
54684;DHT22;40582;53.100;6.686;2022-11-15T08:59:38;11.10;99.90
54684;DHT22;40582;53.100;6.686;2022-11-15T09:02:04;11.10;99.90
54684;DHT22;40582;53.100;6.686;2022-11-15T09:04:30;11.20;99.90
54684;DHT22;40582;53.100;6.686;2022-11-15T09:06:56;11.10;99.90
54684;DHT22;40582;53.100;6.686;2022-11-15T09:09:22;11.10;99.90
54684;DHT22;40582;53.100;6.686;2022-11-15T09:11:47;11.10;99.90
54684;DHT22;40582;53.100;6.686;2022-11-15T09:14:14;11.10;99.90
54684;DHT22;40582;53.100;6.686;2022-11-15T09:16:40;11.10;99.90
54684;DHT22;40582;53.100;6.686;2022-11-15T09:19:06;11.10;99.90
54684;DHT22;40582;53.100;6.686;2022-11-15T09:21:32;11.10;99.90
54684;DHT22;40582;53.100;6.686;2022-11-15T09:23:58;11.10;99.90
54684;DHT22;40582;53.100;6.686;2022-11-15T09:26:24;11.10;99.90
54684;DHT22;40582;53.100;6.686;2022-11-15T09:28:50;11.20;99.90
54684;DHT22;40582;53.100;6.686;2022-11-15T09:31:15;11.10;99.90
54684;DHT22;40582;53.100;6.686;2022-11-15T09:33:43;11.20;99.90
54684;DHT22;40582;53.100;6.686;2022-11-15T09:36:10;11.20;99.90
54684;DHT22;40582;53.100;6.686;2022-11-15T09:38:36;11.30;99.90
54684;DHT22;40582;53.100;6.686;2022-11-15T09:49:06;11.50;99.90
54684;DHT22;40582;53.100;6.686;2022-11-15T09:51:53;11.50;99.90
54684;DHT22;40582;53.100;6.686;2022-11-15T09:54:31;11.60;99.90
54684;DHT22;40582;53.100;6.686;2022-11-15T09:57:13;11.60;99.90
54684;DHT22;40582;53.100;6.686;2022-11-15T09:59:44;11.60;99.90
54684;DHT22;40582;53.100;6.686;2022-11-15T10:04:41;11.70;99.90
54684;DHT22;40582;53.100;6.686;2022-11-15T10:07:16;11.70;99.90
54684;DHT22;40582;53.100;6.686;2022-11-15T10:12:52;11.70;99.90
54684;DHT22;40582;53.100;6.686;2022-11-15T10:15:18;11.70;99.90
54684;DHT22;40582;53.100;6.686;2022-11-15T10:20:28;11.80;99.90
54684;DHT22;40582;53.100;6.686;2022-11-15T10:23:05;11.70;99.90
54684;DHT22;40582;53.100;6.686;2022-11-15T10:25:33;11.70;99.90
54684;DHT22;40582;53.100;6.686;2022-11-15T10:28:21;11.70;99.90
54684;DHT22;40582;53.100;6.686;2022-11-15T10:30:50;11.70;99.90
54684;DHT22;40582;53.100;6.686;2022-11-15T10:41:15;11.50;99.90
54684;DHT22;40582;53.100;6.686;2022-11-15T10:43:42;11.50;99.90
54684;DHT22;40582;53.100;6.686;2022-11-15T10:46:22;11.40;99.90
54684;DHT22;40582;53.100;6.686;2022-11-15T10:48:48;11.40;99.90
54684;DHT22;40582;53.100;6.686;2022-11-15T10:51:26;11.40;99.90
54684;DHT22;40582;53.100;6.686;2022-11-15T10:53:58;11.40;99.90
54684;DHT22;40582;53.100;6.686;2022-11-15T10:56:26;11.40;99.90
54684;DHT22;40582;53.100;6.686;2022-11-15T10:58:56;11.40;99.90
54684;DHT22;40582;53.100;6.686;2022-11-15T11:01:25;11.50;99.90
54684;DHT22;40582;53.100;6.686;2022-11-15T11:06:27;11.80;99.90
54684;DHT22;40582;53.100;6.686;2022-11-15T11:09:01;11.90;99.90
54684;DHT22;40582;53.100;6.686;2022-11-15T11:11:47;11.90;99.90
54684;DHT22;40582;53.100;6.686;2022-11-15T11:14:17;11.90;99.90
54684;DHT22;40582;53.100;6.686;2022-11-15T11:16:52;11.90;99.90
54684;DHT22;40582;53.100;6.686;2022-11-15T11:39:21;12.50;99.90
54684;DHT22;40582;53.100;6.686;2022-11-15T11:41:56;12.70;99.90
54684;DHT22;40582;53.100;6.686;2022-11-15T11:44:55;12.80;99.90
54684;DHT22;40582;53.100;6.686;2022-11-15T11:47:30;12.60;99.90
54684;DHT22;40582;53.100;6.686;2022-11-15T11:50:10;12.60;99.90
54684;DHT22;40582;53.100;6.686;2022-11-15T11:55:28;12.70;99.90
54684;DHT22;40582;53.100;6.686;2022-11-15T12:01:43;12.50;99.90
54684;DHT22;40582;53.100;6.686;2022-11-15T12:04:05;12.50;99.90
54684;DHT22;40582;53.100;6.686;2022-11-15T12:06:59;12.60;99.90
54684;DHT22;40582;53.100;6.686;2022-11-15T12:09:44;12.50;99.90
54684;DHT22;40582;53.100;6.686;2022-11-15T12:14:43;12.40;99.90
54684;DHT22;40582;53.100;6.686;2022-11-15T12:17:12;12.30;99.90
54684;DHT22;40582;53.100;6.686;2022-11-15T12:19:41;12.10;99.90
54684;DHT22;40582;53.100;6.686;2022-11-15T12:24:58;12.20;99.90
54684;DHT22;40582;53.100;6.686;2022-11-15T12:30:04;12.20;99.90
54684;DHT22;40582;53.100;6.686;2022-11-15T12:32:55;12.10;99.90
54684;DHT22;40582;53.100;6.686;2022-11-15T12:37:56;11.80;99.90
54684;DHT22;40582;53.100;6.686;2022-11-15T12:40:25;11.70;99.90
54684;DHT22;40582;53.100;6.686;2022-11-15T12:45:45;11.60;99.90
54684;DHT22;40582;53.100;6.686;2022-11-15T12:58:51;11.40;99.90
54684;DHT22;40582;53.100;6.686;2022-11-15T13:14:57;11.90;99.90
54684;DHT22;40582;53.100;6.686;2022-11-15T13:19:59;12.00;99.90
54684;DHT22;40582;53.100;6.686;2022-11-15T13:22:48;12.00;99.90
54684;DHT22;40582;53.100;6.686;2022-11-15T13:28:18;12.00;99.90
54684;DHT22;40582;53.100;6.686;2022-11-15T13:33:58;11.90;99.90
54684;DHT22;40582;53.100;6.686;2022-11-15T13:36:32;11.80;99.90
54684;DHT22;40582;53.100;6.686;2022-11-15T13:39:04;11.70;99.90
54684;DHT22;40582;53.100;6.686;2022-11-15T13:41:35;11.70;99.90
54684;DHT22;40582;53.100;6.686;2022-11-15T13:44:02;11.70;99.90
54684;DHT22;40582;53.100;6.686;2022-11-15T13:46:30;11.70;99.90
54684;DHT22;40582;53.100;6.686;2022-11-15T13:49:02;11.70;99.90
54684;DHT22;40582;53.100;6.686;2022-11-15T13:54:13;11.50;99.90
54684;DHT22;40582;53.100;6.686;2022-11-15T13:56:51;11.50;99.90
54684;DHT22;40582;53.100;6.686;2022-11-15T13:59:33;11.40;99.90
54684;DHT22;40582;53.100;6.686;2022-11-15T14:02:11;11.30;99.90
54684;DHT22;40582;53.100;6.686;2022-11-15T14:04:45;11.30;99.90
54684;DHT22;40582;53.100;6.686;2022-11-15T14:07:21;11.30;99.90
54684;DHT22;40582;53.100;6.686;2022-11-15T14:09:47;11.20;99.90
54684;DHT22;40582;53.100;6.686;2022-11-15T14:12:34;11.20;99.90
54684;DHT22;40582;53.100;6.686;2022-11-15T14:15:25;11.20;99.90
54684;DHT22;40582;53.100;6.686;2022-11-15T14:17:51;11.10;99.90
54684;DHT22;40582;53.100;6.686;2022-11-15T14:20:38;11.10;99.90
54684;DHT22;40582;53.100;6.686;2022-11-15T14:23:18;11.10;99.90
54684;DHT22;40582;53.100;6.686;2022-11-15T14:25:53;11.00;99.90
54684;DHT22;40582;53.100;6.686;2022-11-15T14:30:47;10.90;99.90
54684;DHT22;40582;53.100;6.686;2022-11-15T14:33:24;10.90;99.90
54684;DHT22;40582;53.100;6.686;2022-11-15T14:35:51;10.80;99.90
54684;DHT22;40582;53.100;6.686;2022-11-15T14:38:18;10.80;99.90
54684;DHT22;40582;53.100;6.686;2022-11-15T14:40:44;10.80;99.90
54684;DHT22;40582;53.100;6.686;2022-11-15T14:43:11;10.60;99.90
54684;DHT22;40582;53.100;6.686;2022-11-15T14:45:37;10.60;99.90
54684;DHT22;40582;53.100;6.686;2022-11-15T14:48:03;10.50;99.90
54684;DHT22;40582;53.100;6.686;2022-11-15T14:50:29;10.50;99.90
54684;DHT22;40582;53.100;6.686;2022-11-15T14:52:55;10.50;99.90
54684;DHT22;40582;53.100;6.686;2022-11-15T14:55:29;10.40;99.90
54684;DHT22;40582;53.100;6.686;2022-11-15T14:57:56;10.40;99.90
54684;DHT22;40582;53.100;6.686;2022-11-15T15:00:22;10.30;99.90
54684;DHT22;40582;53.100;6.686;2022-11-15T15:02:51;10.30;99.90
54684;DHT22;40582;53.100;6.686;2022-11-15T15:05:20;10.20;99.90
54684;DHT22;40582;53.100;6.686;2022-11-15T15:07:46;10.20;99.90
54684;DHT22;40582;53.100;6.686;2022-11-15T15:10:13;10.10;99.90
54684;DHT22;40582;53.100;6.686;2022-11-15T15:12:39;10.10;99.90
54684;DHT22;40582;53.100;6.686;2022-11-15T15:15:06;10.00;99.90
54684;DHT22;40582;53.100;6.686;2022-11-15T15:17:36;10.00;99.90
54684;DHT22;40582;53.100;6.686;2022-11-15T15:20:02;9.90;99.90
54684;DHT22;40582;53.100;6.686;2022-11-15T15:22:29;9.90;99.90
54684;DHT22;40582;53.100;6.686;2022-11-15T15:24:55;9.80;99.90
54684;DHT22;40582;53.100;6.686;2022-11-15T15:27:21;9.80;99.90
54684;DHT22;40582;53.100;6.686;2022-11-15T15:29:47;9.70;99.90
54684;DHT22;40582;53.100;6.686;2022-11-15T15:32:12;9.60;99.90
54684;DHT22;40582;53.100;6.686;2022-11-15T15:34:39;9.60;99.90
54684;DHT22;40582;53.100;6.686;2022-11-15T15:37:25;9.50;99.90
54684;DHT22;40582;53.100;6.686;2022-11-15T15:39:52;9.50;99.90
54684;DHT22;40582;53.100;6.686;2022-11-15T15:42:19;9.40;99.90
54684;DHT22;40582;53.100;6.686;2022-11-15T15:44:46;9.50;99.90
54684;DHT22;40582;53.100;6.686;2022-11-15T15:47:14;9.50;99.90
54684;DHT22;40582;53.100;6.686;2022-11-15T15:49:41;9.50;99.90
54684;DHT22;40582;53.100;6.686;2022-11-15T15:52:07;9.50;99.90
54684;DHT22;40582;53.100;6.686;2022-11-15T15:54:32;9.50;99.90
54684;DHT22;40582;53.100;6.686;2022-11-15T15:56:58;9.50;99.90
54684;DHT22;40582;53.100;6.686;2022-11-15T15:59:24;9.50;99.90
54684;DHT22;40582;53.100;6.686;2022-11-15T16:01:49;9.50;99.90
54684;DHT22;40582;53.100;6.686;2022-11-15T16:04:15;9.50;99.90
54684;DHT22;40582;53.100;6.686;2022-11-15T16:06:41;9.50;99.90
54684;DHT22;40582;53.100;6.686;2022-11-15T16:09:14;9.50;99.90
54684;DHT22;40582;53.100;6.686;2022-11-15T16:11:41;9.60;99.90
54684;DHT22;40582;53.100;6.686;2022-11-15T16:14:07;9.50;99.90
54684;DHT22;40582;53.100;6.686;2022-11-15T16:16:34;9.50;99.90
54684;DHT22;40582;53.100;6.686;2022-11-15T16:19:00;9.40;99.90
54684;DHT22;40582;53.100;6.686;2022-11-15T16:21:27;9.40;99.90
54684;DHT22;40582;53.100;6.686;2022-11-15T16:23:53;9.40;99.90
54684;DHT22;40582;53.100;6.686;2022-11-15T16:26:24;9.40;99.90
54684;DHT22;40582;53.100;6.686;2022-11-15T16:28:50;9.40;99.90
54684;DHT22;40582;53.100;6.686;2022-11-15T16:31:16;9.40;99.90
54684;DHT22;40582;53.100;6.686;2022-11-15T16:33:45;9.40;99.90
54684;DHT22;40582;53.100;6.686;2022-11-15T16:36:21;9.40;99.90
54684;DHT22;40582;53.100;6.686;2022-11-15T16:38:47;9.40;99.90
54684;DHT22;40582;53.100;6.686;2022-11-15T16:41:14;9.40;99.90
54684;DHT22;40582;53.100;6.686;2022-11-15T16:43:40;9.40;99.90
54684;DHT22;40582;53.100;6.686;2022-11-15T16:46:17;9.50;99.90
54684;DHT22;40582;53.100;6.686;2022-11-15T16:48:43;9.50;99.90
54684;DHT22;40582;53.100;6.686;2022-11-15T16:51:08;9.50;99.90
54684;DHT22;40582;53.100;6.686;2022-11-15T16:53:35;9.60;99.90
54684;DHT22;40582;53.100;6.686;2022-11-15T16:56:01;9.60;99.90
54684;DHT22;40582;53.100;6.686;2022-11-15T16:58:26;9.50;99.90
54684;DHT22;40582;53.100;6.686;2022-11-15T17:00:53;9.60;99.90
54684;DHT22;40582;53.100;6.686;2022-11-15T17:03:23;9.60;99.90
54684;DHT22;40582;53.100;6.686;2022-11-15T17:05:49;9.60;99.90
54684;DHT22;40582;53.100;6.686;2022-11-15T17:08:15;9.70;99.90
54684;DHT22;40582;53.100;6.686;2022-11-15T17:10:41;9.70;99.90
54684;DHT22;40582;53.100;6.686;2022-11-15T17:13:13;9.80;99.90
54684;DHT22;40582;53.100;6.686;2022-11-15T17:15:39;9.80;99.90
54684;DHT22;40582;53.100;6.686;2022-11-15T17:18:05;9.80;99.90
54684;DHT22;40582;53.100;6.686;2022-11-15T17:20:31;9.80;99.90
54684;DHT22;40582;53.100;6.686;2022-11-15T17:22:57;9.80;99.90
54684;DHT22;40582;53.100;6.686;2022-11-15T17:25:22;9.80;99.90
54684;DHT22;40582;53.100;6.686;2022-11-15T17:27:48;9.90;99.90
54684;DHT22;40582;53.100;6.686;2022-11-15T17:30:14;9.80;99.90
54684;DHT22;40582;53.100;6.686;2022-11-15T17:32:41;9.80;99.90
54684;DHT22;40582;53.100;6.686;2022-11-15T17:35:08;9.80;99.90
54684;DHT22;40582;53.100;6.686;2022-11-15T17:37:35;9.80;99.90
54684;DHT22;40582;53.100;6.686;2022-11-15T17:40:01;9.80;99.90
54684;DHT22;40582;53.100;6.686;2022-11-15T17:42:26;9.80;99.90
54684;DHT22;40582;53.100;6.686;2022-11-15T17:44:52;9.80;99.90
54684;DHT22;40582;53.100;6.686;2022-11-15T17:47:18;9.90;99.90
54684;DHT22;40582;53.100;6.686;2022-11-15T17:49:43;9.90;99.90
54684;DHT22;40582;53.100;6.686;2022-11-15T17:52:09;9.90;99.90
54684;DHT22;40582;53.100;6.686;2022-11-15T17:54:35;9.90;99.90
54684;DHT22;40582;53.100;6.686;2022-11-15T17:57:00;9.90;99.90
54684;DHT22;40582;53.100;6.686;2022-11-15T17:59:26;9.80;99.90
54684;DHT22;40582;53.100;6.686;2022-11-15T18:01:52;9.80;99.90